Terminal Aerodrome Forecast
Issued by NWS

Home | Current Version | Previous Version | Text Only | Print | Product List | Glossary On
Versions: 1 2 3 4 5 6 7 8 9 10 11 12 13 14 15 16 17 18 19
000
FTUS42 KMHX 260520
TAFISO
TAF
KISO 260520Z 2606/2706 23004KT P6SM SKC
     FM260800 00000KT 4SM BR SKC
      TEMPO 2609/2612 2SM BR
     FM261300 03005KT P6SM SCT150
     FM261500 06005KT P6SM VCSH BKN100
     FM262100 15006KT P6SM BKN090
      AMD LTD TO CLD VIS AND WIND=

USA.gov is the U.S. government's official web portal to all federal, state and local government web resources and services.